createdAt,value
2019-06-10T00:01:40.881Z,101592.20
2019-06-10T00:04:08.871Z,101595.87
2019-06-10T00:06:34.620Z,101596.17
2019-06-10T00:09:03.093Z,101593.65
2019-06-10T00:11:28.306Z,101588.31
2019-06-10T00:13:54.168Z,101580.86
2019-06-10T00:16:20.844Z,101578.56
2019-06-10T00:18:46.826Z,101575.21
2019-06-10T00:21:12.748Z,101582.33
2019-06-10T00:23:41.064Z,101586.50
2019-06-10T00:26:08.042Z,101582.00
2019-06-10T00:28:34.175Z,101578.34
2019-06-10T00:31:01.166Z,101571.33
2019-06-10T00:33:27.831Z,101560.62
2019-06-10T00:35:53.725Z,101562.94
2019-06-10T00:38:21.388Z,101554.36
2019-06-10T00:40:47.387Z,101542.75
2019-06-10T00:43:13.714Z,101533.76
2019-06-10T00:45:40.963Z,101521.13
2019-06-10T00:48:15.746Z,101531.70
2019-06-10T00:50:34.890Z,101530.77
2019-06-10T00:53:01.363Z,101529.00
2019-06-10T00:55:28.552Z,101525.58
2019-06-10T00:57:54.420Z,101525.36
2019-06-10T01:00:25.714Z,101519.94
2019-06-10T01:02:48.161Z,101520.17
2019-06-10T01:05:15.305Z,101525.10
2019-06-10T01:07:41.764Z,101520.89
2019-06-10T01:10:08.960Z,101523.84
2019-06-10T01:12:34.914Z,101517.13
2019-06-10T01:15:00.936Z,101510.23
2019-06-10T01:17:26.872Z,101508.34
2019-06-10T01:19:52.755Z,101505.53
2019-06-10T01:22:21.114Z,101505.95
2019-06-10T01:24:46.436Z,101509.30
2019-06-10T01:27:13.863Z,101503.97
2019-06-10T01:29:41.631Z,101497.98
2019-06-10T01:32:07.621Z,101491.51
2019-06-10T01:34:33.484Z,101485.97
2019-06-10T01:37:01.437Z,101485.38
2019-06-10T01:39:27.137Z,101479.70
2019-06-10T01:41:53.026Z,101478.41
2019-06-10T01:44:18.888Z,101475.53
2019-06-10T01:46:44.799Z,101477.08
2019-06-10T01:49:12.002Z,101477.71
2019-06-10T01:51:41.054Z,101477.71
2019-06-10T01:54:07.432Z,101473.31
2019-06-10T01:56:33.355Z,101470.59
2019-06-10T01:59:01.361Z,101470.18
2019-06-10T02:01:30.667Z,101460.75
2019-06-10T02:03:56.685Z,101460.66
2019-06-10T02:06:25.616Z,101460.98
2019-06-10T02:08:53.386Z,101451.45
2019-06-10T02:11:23.481Z,101447.48
2019-06-10T02:13:48.423Z,101441.62
2019-06-10T02:16:16.171Z,101439.76
2019-06-10T02:18:54.409Z,101442.25
2019-06-10T02:21:14.310Z,101448.73
2019-06-10T02:23:37.632Z,101444.66
2019-06-10T02:26:03.614Z,101442.76
2019-06-10T02:28:31.661Z,101437.44
2019-06-10T02:30:57.269Z,101431.67
2019-06-10T02:33:30.329Z,101424.55
2019-06-10T02:35:53.747Z,101420.88
2019-06-10T02:38:26.353Z,101416.57
2019-06-10T02:40:46.784Z,101408.46
2019-06-10T02:43:19.946Z,101406.87
2019-06-10T02:45:44.655Z,101395.91
2019-06-10T02:48:12.903Z,101403.21
2019-06-10T02:50:53.577Z,101392.24
2019-06-10T02:53:19.729Z,101398.42
2019-06-10T02:55:47.210Z,101397.16
2019-06-10T02:58:13.936Z,101394.13
2019-06-10T03:00:47.461Z,101391.09
2019-06-10T03:03:09.364Z,101395.80
2019-06-10T03:05:40.917Z,101387.66
2019-06-10T03:08:04.047Z,101385.47
2019-06-10T03:10:36.112Z,101369.89
2019-06-10T03:12:57.821Z,101369.17
2019-06-10T03:15:26.428Z,101371.25
2019-06-10T03:17:52.189Z,101370.75
2019-06-10T03:20:18.127Z,101367.48
2019-06-10T03:22:44.017Z,101375.33
2019-06-10T03:25:09.976Z,101371.98
2019-06-10T03:27:35.861Z,101366.22
2019-06-10T03:30:14.663Z,101368.02
2019-06-10T03:32:39.446Z,101369.88
2019-06-10T03:34:59.346Z,101368.74
2019-06-10T03:37:26.326Z,101365.48
2019-06-10T03:39:53.126Z,101357.87
2019-06-10T03:42:19.048Z,101356.83
2019-06-10T03:44:44.937Z,101366.11
2019-06-10T03:47:12.167Z,101361.62
2019-06-10T03:49:49.899Z,101359.21
2019-06-10T03:52:05.839Z,101357.94
2019-06-10T03:54:32.560Z,101354.52
2019-06-10T03:56:58.587Z,101351.47
2019-06-10T03:59:26.523Z,101346.98
2019-06-10T04:01:52.916Z,101339.88
2019-06-10T04:04:19.440Z,101339.88
2019-06-10T04:06:45.289Z,101340.19
2019-06-10T04:09:12.087Z,101342.28
2019-06-10T04:11:38.131Z,101335.98
2019-06-10T04:14:04.025Z,101332.77
2019-06-10T04:16:29.889Z,101324.06
2019-06-10T04:18:55.783Z,101324.92
2019-06-10T04:21:22.756Z,101324.69
2019-06-10T04:23:49.435Z,101325.63
2019-06-10T04:26:15.307Z,101321.34
2019-06-10T04:28:43.102Z,101317.80
2019-06-10T04:31:08.947Z,101318.13
2019-06-10T04:33:34.830Z,101322.52
2019-06-10T04:36:02.975Z,101321.48
2019-06-10T04:38:29.094Z,101325.55
2019-06-10T04:40:54.948Z,101321.48
2019-06-10T04:43:22.997Z,101312.27
2019-06-10T04:45:48.587Z,101312.55
2019-06-10T04:48:14.452Z,101303.91
2019-06-10T04:50:45.500Z,101316.03
2019-06-10T04:53:08.109Z,101311.02
2019-06-10T04:55:33.993Z,101312.06
2019-06-10T04:57:59.855Z,101303.28
2019-06-10T05:00:27.575Z,101301.92
2019-06-10T05:02:53.722Z,101294.81
2019-06-10T05:05:21.565Z,101288.33
2019-06-10T05:07:47.504Z,101294.08
2019-06-10T05:10:13.994Z,101298.05
2019-06-10T05:12:39.851Z,101298.94
2019-06-10T05:15:06.027Z,101297.06
2019-06-10T05:17:34.296Z,101298.34
2019-06-10T05:20:02.273Z,101294.86
2019-06-10T05:22:28.483Z,101292.37
2019-06-10T05:24:54.412Z,101287.09
2019-06-10T05:27:22.431Z,101283.88
2019-06-10T05:29:48.070Z,101276.76
2019-06-10T05:32:13.931Z,101280.19
2019-06-10T05:34:39.820Z,101279.67
2019-06-10T05:37:05.681Z,101291.09
2019-06-10T05:39:34.745Z,101289.20
2019-06-10T05:41:59.346Z,101288.06
2019-06-10T05:44:25.800Z,101278.77
2019-06-10T05:46:52.968Z,101277.33
2019-06-10T05:49:18.871Z,101283.39
2019-06-10T05:51:44.733Z,101280.67
2019-06-10T05:54:12.791Z,101281.60
2019-06-10T05:56:38.384Z,101283.27
2019-06-10T05:59:04.471Z,101283.72
2019-06-10T06:01:32.358Z,101273.58
2019-06-10T06:03:58.197Z,101270.89
2019-06-10T06:06:24.990Z,101273.78
2019-06-10T06:08:53.169Z,101263.22
2019-06-10T06:11:18.665Z,101256.53
2019-06-10T06:13:44.525Z,101260.27
2019-06-10T06:16:12.619Z,101272.20
2019-06-10T06:18:38.410Z,101275.31
2019-06-10T06:21:20.630Z,101274.47
2019-06-10T06:23:36.678Z,101274.20
2019-06-10T06:26:03.911Z,101279.73
2019-06-10T06:28:30.578Z,101277.69
2019-06-10T06:30:57.338Z,101272.13
2019-06-10T06:33:23.201Z,101267.96
2019-06-10T06:35:49.093Z,101258.48
2019-06-10T06:38:14.955Z,101248.49
2019-06-10T06:40:43.347Z,101257.47
2019-06-10T06:43:08.614Z,101256.50
2019-06-10T06:45:35.902Z,101246.37
2019-06-10T06:48:03.006Z,101250.25
2019-06-10T06:50:30.178Z,101260.87
2019-06-10T06:55:24.826Z,101245.70
2019-06-10T06:57:52.878Z,101237.77
2019-06-10T07:00:38.334Z,101234.32
2019-06-10T07:02:52.806Z,101231.40
2019-06-10T07:05:18.219Z,101223.49
2019-06-10T07:07:44.309Z,101213.88
2019-06-10T07:10:12.206Z,101220.13
2019-06-10T07:12:39.490Z,101216.17
2019-06-10T07:15:06.653Z,101224.09
2019-06-10T07:17:34.540Z,101210.91
2019-06-10T07:20:00.300Z,101217.33
2019-06-10T07:22:26.319Z,101227.19
2019-06-10T07:24:52.847Z,101227.89
2019-06-10T07:27:18.977Z,101222.60
2019-06-10T07:29:47.161Z,101227.08
2019-06-10T07:32:12.626Z,101223.11
2019-06-10T07:34:39.911Z,101226.48
2019-06-10T07:37:06.270Z,101210.65
2019-06-10T07:39:34.672Z,101209.80
2019-06-10T07:41:59.918Z,101214.50
2019-06-10T07:44:25.774Z,101211.70
2019-06-10T07:46:53.034Z,101217.58
2019-06-10T07:49:19.128Z,101219.20
2019-06-10T07:51:46.426Z,101218.01
2019-06-10T07:54:12.591Z,101209.69
2019-06-10T07:56:43.155Z,101209.12
2019-06-10T07:59:06.232Z,101208.34
2019-06-10T08:01:33.327Z,101208.06
2019-06-10T08:03:59.875Z,101201.73
2019-06-10T08:06:25.792Z,101205.66
2019-06-10T08:08:53.159Z,101206.81
2019-06-10T08:11:19.312Z,101207.69
2019-06-10T08:13:46.351Z,101217.75
2019-06-10T08:16:13.247Z,101216.27
2019-06-10T08:19:03.500Z,101209.95
2019-06-10T08:21:07.046Z,101208.38
2019-06-10T08:23:33.084Z,101196.31
2019-06-10T08:25:58.989Z,101198.16
2019-06-10T08:28:24.876Z,101199.48
2019-06-10T08:30:53.174Z,101196.93
2019-06-10T08:33:22.471Z,101202.83
2019-06-10T08:35:56.367Z,101203.06
2019-06-10T08:38:15.388Z,101199.66
2019-06-10T08:40:44.715Z,101194.41
2019-06-10T08:43:09.048Z,101184.23
2019-06-10T08:45:34.914Z,101183.61
2019-06-10T08:48:02.689Z,101179.43
2019-06-10T08:50:28.564Z,101170.20
2019-06-10T08:53:10.472Z,101172.03
2019-06-10T08:55:22.884Z,101174.38
2019-06-10T08:57:51.071Z,101167.09
2019-06-10T09:00:18.793Z,101170.81
2019-06-10T09:02:45.970Z,101174.30
2019-06-10T09:05:15.003Z,101173.98
2019-06-10T09:07:45.458Z,101178.14
2019-06-10T09:10:08.707Z,101178.97
2019-06-10T09:12:36.729Z,101181.95
2019-06-10T09:15:04.906Z,101172.72
2019-06-10T09:17:33.783Z,101169.83
2019-06-10T09:19:59.420Z,101169.22
2019-06-10T09:22:25.299Z,101177.86
2019-06-10T09:24:55.396Z,101172.31
2019-06-10T09:27:18.913Z,101170.20
2019-06-10T09:29:49.111Z,101167.71
2019-06-10T09:32:12.888Z,101165.67
2019-06-10T09:34:41.381Z,101164.23
2019-06-10T09:37:07.582Z,101161.95
2019-06-10T09:39:34.660Z,101155.45
2019-06-10T09:42:05.943Z,101168.84
2019-06-10T09:44:28.792Z,101174.45
2019-06-10T09:46:56.478Z,101169.91
2019-06-10T09:49:24.157Z,101160.36
2019-06-10T09:51:55.887Z,101156.79
2019-06-10T09:54:17.804Z,101156.63
2019-06-10T09:56:46.898Z,101155.35
2019-06-10T09:59:12.870Z,101148.15
2019-06-10T10:01:39.060Z,101154.88
2019-06-10T10:04:05.100Z,101150.24
2019-06-10T10:06:32.737Z,101144.48
2019-06-10T10:08:58.768Z,101142.94
2019-06-10T10:11:28.280Z,101144.36
2019-06-10T10:13:52.757Z,101145.67
2019-06-10T10:16:18.857Z,101143.55
2019-06-10T10:18:48.314Z,101144.16
2019-06-10T10:21:14.623Z,101141.84
2019-06-10T10:23:51.202Z,101142.38
2019-06-10T10:26:08.882Z,101139.00
2019-06-10T10:28:34.806Z,101136.45
2019-06-10T10:31:03.565Z,101141.34
2019-06-10T10:33:30.192Z,101137.36
2019-06-10T10:35:56.492Z,101127.97
2019-06-10T10:38:23.054Z,101132.25
2019-06-10T10:40:50.622Z,101118.05
2019-06-10T10:43:25.202Z,101121.47
2019-06-10T10:45:47.373Z,101125.88
2019-06-10T10:48:14.083Z,101123.91
2019-06-10T10:50:40.156Z,101130.92
2019-06-10T10:53:05.985Z,101125.97
2019-06-10T10:55:33.355Z,101120.28
2019-06-10T10:57:59.340Z,101118.20
2019-06-10T11:00:33.004Z,101112.46
2019-06-10T11:02:56.818Z,101115.83
2019-06-10T11:05:33.256Z,101114.45
2019-06-10T11:07:59.352Z,101115.83
2019-06-10T11:10:25.360Z,101114.77
2019-06-10T11:12:53.728Z,101110.23
2019-06-10T11:15:23.201Z,101110.70
2019-06-10T11:17:49.545Z,101112.42
2019-06-10T11:20:15.471Z,101105.72
2019-06-10T11:22:43.344Z,101097.72
2019-06-10T11:25:09.124Z,101092.98
2019-06-10T11:27:34.996Z,101088.34
2019-06-10T11:30:02.447Z,101081.55
2019-06-10T11:32:28.528Z,101080.31
2019-06-10T11:34:56.932Z,101072.75
2019-06-10T11:37:23.099Z,101067.63
2019-06-10T11:39:50.208Z,101064.60
2019-06-10T11:42:16.182Z,101062.64
2019-06-10T11:44:42.591Z,101056.92
2019-06-10T11:47:08.547Z,101056.66
2019-06-10T11:49:34.503Z,101048.87
2019-06-10T11:52:03.060Z,101048.02
2019-06-10T11:54:28.318Z,101050.95
2019-06-10T11:56:56.470Z,101048.70
2019-06-10T11:59:22.049Z,101051.23
2019-06-10T12:01:49.191Z,101049.02
2019-06-10T12:04:15.763Z,101048.70
2019-06-10T12:06:42.615Z,101044.73
2019-06-10T12:09:08.652Z,101051.91
2019-06-10T12:11:34.539Z,101047.36
2019-06-10T12:14:04.583Z,101043.25
2019-06-10T12:17:15.469Z,101042.41
2019-06-10T12:18:58.946Z,101046.16
2019-06-10T12:21:26.000Z,101045.41
2019-06-10T12:23:55.962Z,101040.13
2019-06-10T12:26:19.649Z,101046.48
2019-06-10T12:28:45.564Z,101048.62
2019-06-10T12:31:13.396Z,101049.93
2019-06-10T12:33:39.203Z,101056.45
2019-06-10T12:36:07.233Z,101055.96
2019-06-10T12:38:33.623Z,101055.48
2019-06-10T12:41:03.266Z,101064.70
2019-06-10T12:43:32.664Z,101055.98
2019-06-10T12:45:59.133Z,101059.08
2019-06-10T12:48:29.526Z,101039.94
2019-06-10T12:50:57.633Z,101036.39
2019-06-10T12:53:23.372Z,101031.27
2019-06-10T12:55:49.245Z,101049.09
2019-06-10T12:58:15.129Z,101040.23
2019-06-10T13:00:45.717Z,101042.20
2019-06-10T13:03:12.888Z,101038.57
2019-06-10T13:05:38.913Z,101033.87
2019-06-10T13:08:05.963Z,101032.77
2019-06-10T13:10:39.362Z,101033.98
2019-06-10T13:13:07.419Z,101027.44
2019-06-10T13:15:33.310Z,101023.03
2019-06-10T13:18:00.290Z,101028.95
2019-06-10T13:20:26.273Z,101015.81
2019-06-10T13:22:52.139Z,101012.07
2019-06-10T13:25:18.028Z,101013.63
2019-06-10T13:27:43.889Z,101019.05
2019-06-10T13:30:10.660Z,101015.08
2019-06-10T13:32:36.529Z,101012.63
2019-06-10T13:35:05.654Z,101019.11
2019-06-10T13:37:32.190Z,101013.97
2019-06-10T13:39:59.390Z,101015.19
2019-06-10T13:42:25.599Z,101016.61
2019-06-10T13:44:52.404Z,101006.11
2019-06-10T13:47:18.855Z,100999.73
2019-06-10T13:49:44.770Z,100995.91
2019-06-10T13:52:15.981Z,101003.42
2019-06-10T13:54:38.401Z,101007.77
2019-06-10T13:57:06.906Z,101002.48
2019-06-10T13:59:32.059Z,100990.54
2019-06-10T14:01:57.945Z,100982.80
2019-06-10T14:04:25.822Z,100986.64
2019-06-10T14:06:56.842Z,100981.24
2019-06-10T14:09:19.409Z,100981.46
2019-06-10T14:11:45.389Z,100979.88
2019-06-10T14:14:14.114Z,100973.57
2019-06-10T14:16:42.183Z,100977.75
2019-06-10T14:19:09.364Z,100967.81
2019-06-10T14:21:35.525Z,100965.55
2019-06-10T14:24:02.138Z,100962.43
2019-06-10T14:26:37.824Z,100959.16
2019-06-10T14:28:55.900Z,100956.42
2019-06-10T14:31:39.572Z,100962.95
2019-06-10T14:33:49.552Z,100954.39
2019-06-10T14:36:16.853Z,100949.78
2019-06-10T14:38:43.668Z,100949.55
2019-06-10T14:41:10.060Z,100953.16
2019-06-10T14:43:36.031Z,100954.41
2019-06-10T14:46:01.916Z,100943.47
2019-06-10T14:48:27.797Z,100949.92
2019-06-10T14:50:53.686Z,100941.42
2019-06-10T14:53:19.553Z,100939.09
2019-06-10T14:55:45.601Z,100932.09
2019-06-10T14:58:13.803Z,100928.48
2019-06-10T15:00:39.251Z,100931.06
2019-06-10T15:03:07.017Z,100927.74
2019-06-10T15:05:33.411Z,100928.26
2019-06-10T15:07:59.335Z,100933.82
2019-06-10T15:10:25.193Z,100925.11
2019-06-10T15:12:52.953Z,100920.78
2019-06-10T15:15:21.035Z,100914.34
2019-06-10T15:17:47.449Z,100919.98
2019-06-10T15:20:15.676Z,100918.42
2019-06-10T15:22:43.162Z,100914.03
2019-06-10T15:25:09.258Z,100908.16
2019-06-10T15:27:35.166Z,100904.94
2019-06-10T15:30:11.350Z,100900.04
2019-06-10T15:32:34.671Z,100898.19
2019-06-10T15:34:57.957Z,100892.93
2019-06-10T15:37:24.286Z,100898.83
2019-06-10T15:39:52.690Z,100898.45
2019-06-10T15:42:18.023Z,100897.24
2019-06-10T15:44:52.025Z,100896.48
2019-06-10T15:47:13.972Z,100897.73
2019-06-10T15:49:39.446Z,100892.95
2019-06-10T15:52:05.405Z,100885.75
2019-06-10T15:54:33.261Z,100880.70
2019-06-10T15:56:59.064Z,100873.59
2019-06-10T15:59:24.954Z,100877.44
2019-06-10T16:01:52.917Z,100881.88
2019-06-10T16:04:19.292Z,100881.75
2019-06-10T16:06:46.404Z,100877.55
2019-06-10T16:09:13.844Z,100880.25
2019-06-10T16:11:41.107Z,100877.72
2019-06-10T16:14:07.857Z,100881.09
2019-06-10T16:16:33.714Z,100887.28
2019-06-10T16:19:02.144Z,100881.35
2019-06-10T16:21:27.497Z,100890.17
2019-06-10T16:23:53.560Z,100886.31
2019-06-10T16:26:20.026Z,100886.95
2019-06-10T16:28:45.948Z,100878.36
2019-06-10T16:31:13.074Z,100888.56
2019-06-10T16:33:39.618Z,100888.94
2019-06-10T16:36:05.485Z,100889.60
2019-06-10T16:38:32.807Z,100895.81
2019-06-10T16:40:58.832Z,100891.61
2019-06-10T16:43:26.236Z,100900.41
2019-06-10T16:45:52.689Z,100904.63
2019-06-10T16:48:19.022Z,100901.39
2019-06-10T16:50:47.124Z,100909.11
2019-06-10T16:53:13.608Z,100903.12
2019-06-10T16:55:39.708Z,100900.12
2019-06-10T16:58:08.323Z,100905.63
2019-06-10T17:00:34.713Z,100902.33
2019-06-10T17:03:00.936Z,100903.14
2019-06-10T17:05:29.006Z,100904.58
2019-06-10T17:07:54.621Z,100904.29
2019-06-10T17:10:21.762Z,100903.02
2019-06-10T17:12:49.666Z,100900.22
2019-06-10T17:15:15.661Z,100897.68
2019-06-10T17:17:41.518Z,100902.52
2019-06-10T17:20:07.502Z,100906.72
2019-06-10T17:22:33.568Z,100904.14
2019-06-10T17:24:59.450Z,100917.11
2019-06-10T17:27:26.700Z,100924.05
2019-06-10T17:29:53.106Z,100919.61
2019-06-10T17:32:19.761Z,100924.22
2019-06-10T17:34:46.257Z,100921.16
2019-06-10T17:37:12.585Z,100928.98
2019-06-10T17:39:38.476Z,100922.63
2019-06-10T17:42:04.468Z,100920.23
2019-06-10T17:44:31.138Z,100913.95
2019-06-10T17:46:58.122Z,100919.16
2019-06-10T17:49:25.552Z,100920.05
2019-06-10T17:51:52.575Z,100917.06
2019-06-10T17:54:18.537Z,100916.81
2019-06-10T17:56:44.422Z,100913.79
2019-06-10T17:59:12.663Z,100907.19
2019-06-10T18:01:38.149Z,100901.39
2019-06-10T18:04:04.024Z,100901.03
2019-06-10T18:06:29.942Z,100898.42
2019-06-10T18:08:55.804Z,100896.72
2019-06-10T18:11:24.319Z,100900.63
2019-06-10T18:13:49.450Z,100896.82
2019-06-10T18:16:15.352Z,100898.58
2019-06-10T18:18:42.580Z,100890.56
2019-06-10T18:21:08.612Z,100891.34
2019-06-10T18:23:35.149Z,100888.43
2019-06-10T18:26:03.347Z,100884.33
2019-06-10T18:28:29.304Z,100883.15
2019-06-10T18:30:55.395Z,100892.52
2019-06-10T18:33:23.131Z,100878.80
2019-06-10T18:35:49.055Z,100866.38
2019-06-10T18:38:14.940Z,100867.75
2019-06-10T18:40:42.869Z,100864.06
2019-06-10T18:43:08.603Z,100859.80
2019-06-10T18:45:37.812Z,100865.02
2019-06-10T18:48:02.544Z,100860.03
2019-06-10T18:50:28.600Z,100859.22
2019-06-10T18:52:57.365Z,100857.64
2019-06-10T18:55:24.251Z,100862.43
2019-06-10T18:57:50.147Z,100857.08
2019-06-10T19:00:17.903Z,100852.39
2019-06-10T19:02:43.798Z,100850.86
2019-06-10T19:05:13.078Z,100842.22
2019-06-10T19:07:40.492Z,100852.95
2019-06-10T19:10:07.347Z,100853.13
2019-06-10T19:12:34.081Z,100849.98
2019-06-10T19:15:02.790Z,100850.48
2019-06-10T19:17:30.359Z,100854.23
2019-06-10T19:19:56.533Z,100852.36
2019-06-10T19:22:22.630Z,100856.66
2019-06-10T19:24:48.476Z,100848.47
2019-06-10T19:27:14.368Z,100855.52
2019-06-10T19:29:48.569Z,100846.21
2019-06-10T19:32:08.024Z,100841.78
2019-06-10T19:34:33.895Z,100841.95
2019-06-10T19:36:59.777Z,100839.82
2019-06-10T19:39:25.648Z,100838.88
2019-06-10T19:41:53.016Z,100841.48
2019-06-10T19:44:19.006Z,100832.23
2019-06-10T19:46:44.862Z,100817.41
2019-06-10T19:49:13.339Z,100816.34
2019-06-10T19:51:38.919Z,100816.13
2019-06-10T19:54:05.084Z,100813.27
2019-06-10T19:56:31.046Z,100817.41
2019-06-10T19:58:56.940Z,100815.30
2019-06-10T20:01:22.800Z,100818.73
2019-06-10T20:03:48.685Z,100812.16
2019-06-10T20:06:14.580Z,100820.55
2019-06-10T20:08:43.124Z,100814.34
2019-06-10T20:11:08.230Z,100816.97
2019-06-10T20:13:34.453Z,100818.50
2019-06-10T20:16:02.789Z,100813.64
2019-06-10T20:18:28.174Z,100810.62
2019-06-10T20:20:54.234Z,100808.19
2019-06-10T20:23:20.125Z,100794.55
2019-06-10T20:25:46.896Z,100794.92
2019-06-10T20:28:13.217Z,100780.81
2019-06-10T20:30:39.142Z,100777.95
2019-06-10T20:33:05.024Z,100766.59
2019-06-10T20:35:32.662Z,100773.75
2019-06-10T20:37:58.674Z,100770.93
2019-06-10T20:40:24.630Z,100760.45
2019-06-10T20:42:50.539Z,100764.23
2019-06-10T20:45:16.628Z,100763.47
2019-06-10T20:47:45.139Z,100762.76
2019-06-10T20:50:12.948Z,100761.89
2019-06-10T20:52:38.333Z,100772.48
2019-06-10T20:55:06.233Z,100780.58
2019-06-10T20:57:33.110Z,100789.05
2019-06-10T20:59:59.072Z,100783.25
2019-06-10T21:02:24.946Z,100777.58
2019-06-10T21:04:53.227Z,100783.84
2019-06-10T21:07:23.143Z,100791.47
2019-06-10T21:09:53.446Z,100798.47
2019-06-10T21:12:19.575Z,100802.20
2019-06-10T21:14:48.464Z,100795.69
2019-06-10T21:17:14.322Z,100793.48
2019-06-10T21:19:41.028Z,100800.53
2019-06-10T21:22:07.964Z,100796.37
2019-06-10T21:24:33.858Z,100789.36
2019-06-10T21:26:59.720Z,100798.27
2019-06-10T21:29:25.604Z,100819.60
2019-06-10T21:31:54.475Z,100816.83
2019-06-10T21:34:19.343Z,100811.89
2019-06-10T21:36:45.319Z,100806.69
2019-06-10T21:39:11.274Z,100795.71
2019-06-10T21:41:37.162Z,100787.62
2019-06-10T21:44:03.445Z,100795.66
2019-06-10T21:46:29.333Z,100791.27
2019-06-10T21:48:55.924Z,100786.37
2019-06-10T21:51:22.748Z,100791.97
2019-06-10T21:53:48.962Z,100782.55
2019-06-10T21:56:14.888Z,100785.27
2019-06-10T21:58:42.331Z,100789.95
2019-06-10T22:01:13.288Z,100801.64
2019-06-10T22:03:36.546Z,100800.44
2019-06-10T22:06:02.708Z,100802.31
2019-06-10T22:08:28.562Z,100796.87
2019-06-10T22:10:56.424Z,100804.28
2019-06-10T22:13:22.484Z,100793.22
2019-06-10T22:15:48.457Z,100783.63
2019-06-10T22:18:14.263Z,100781.27
2019-06-10T22:20:42.659Z,100775.63
2019-06-10T22:23:08.054Z,100771.78
2019-06-10T22:25:33.999Z,100762.87
2019-06-10T22:27:59.879Z,100764.02
2019-06-10T22:30:25.842Z,100760.90
2019-06-10T22:32:54.856Z,100763.56
2019-06-10T22:35:19.485Z,100747.18
2019-06-10T22:37:45.640Z,100740.32
2019-06-10T22:40:12.365Z,100728.29
2019-06-10T22:42:38.312Z,100725.20
2019-06-10T22:45:05.379Z,100721.67
2019-06-10T22:47:32.374Z,100724.81
2019-06-10T22:49:59.967Z,100733.43
2019-06-10T22:52:26.340Z,100732.16
2019-06-10T22:54:55.157Z,100732.37
2019-06-10T22:57:22.162Z,100728.14
2019-06-10T22:59:48.668Z,100721.73
2019-06-10T23:02:14.606Z,100723.03
2019-06-10T23:04:43.251Z,100732.64
2019-06-10T23:07:08.305Z,100736.78
2019-06-10T23:09:34.169Z,100741.59
2019-06-10T23:12:00.046Z,100740.83
2019-06-10T23:14:25.912Z,100744.67
2019-06-10T23:16:54.937Z,100742.64
2019-06-10T23:19:19.563Z,100747.20
2019-06-10T23:21:45.420Z,100742.34
2019-06-10T23:24:13.428Z,100741.53
2019-06-10T23:26:39.064Z,100739.05
2019-06-10T23:29:04.951Z,100741.47
2019-06-10T23:31:33.659Z,100745.91
2019-06-10T23:33:58.597Z,100741.07
2019-06-10T23:36:24.456Z,100742.16
2019-06-10T23:38:50.641Z,100746.14
2019-06-10T23:41:16.513Z,100760.41
2019-06-10T23:43:42.455Z,100761.86
2019-06-10T23:46:08.360Z,100757.77
2019-06-10T23:48:34.242Z,100756.81
2019-06-10T23:51:00.465Z,100760.95
2019-06-10T23:53:27.894Z,100751.95
2019-06-10T23:55:54.670Z,100743.13
2019-06-10T23:58:22.796Z,100751.38
